Saugus, MA (01906)

11:00 AM EDT on September 05, 2015 (GMT -0400)
East Side Melrose | | Change Station
CLOSE
Current Station
Personal Weather Station
Location: Melrose, MA
Elevation: 115 ft
Nearby Weather Stations

Elev 115 ft 42.46 °N, 71.05 °W | Updated 23 seconds ago

Clear
Clear
73.2 °F
Feels Like 77 °F
N
1.5
Wind Variable Wind from ENE
Gusts 5.0 mph

Today
High -- | Low -- °F
--% Chance of Precip.
Yesterday
High -- | Low -- °F
Precip. -- in
6:13 AM 7:11 PM
Waning Gibbous, 48% visible
Pressure 30.31 in
Visibility 10.0 miles
Clouds Few 2500 ft
Scattered Clouds 30000 ft
Heat Index 77 °F
Dew Point 54 °F
Humidity 51%
Rainfall 0.00 in
Snow Depth Not available.
UV 6 out of 12
Pollen 8.50 out of 12
Air Quality Not available.
Flu Activity Not available.
METAR KBOS 051454Z 12005KT 10SM FEW025 SCT300 21/10 A3031 RMK AO2 SLP262 T02110100 58001
Pressure 30.31 in
Visibility 10.0 miles
Clouds Few 2500 ft
Scattered Clouds 30000 ft
Heat Index 77 °F
Dew Point 54 °F
Humidity 51%
Rainfall 0.00 in
Snow Depth Not available.
UV 6 out of 12
Pollen 8.50 out of 12
Air Quality Not available.
Flu Activity Not available.
METAR KBOS 051454Z 12005KT 10SM FEW025 SCT300 21/10 A3031 RMK AO2 SLP262 T02110100 58001

10-Day Weather Forecast

×

Almanac

Astronomy

Sep. 05, 2015 Rise Set
Actual Time
Civil Twilight
Nautical Twilight
Astronomical Twilight
Moon
Length of Visible Light
Length of Day
Tomorrow will be .
, % of the Moon is Illuminated

Today's Extremes

State Highs State Lows

Community

WunderPhotos

Upload Photos

1,852,480 photos uploaded!

WunderBlogs® & News

Nearby

Air Quality

  Air Quality AQ Index Pollutant
Not available.

Snow Depth

Station Depth Elevation

Earthquake Activity

City Distance Mag. Time & Date
Minimum magnitude displayed is 2.5.

Coastal Water Temperatures

Place Temperature

Stations

Nearby Weather Stations

Station Location Temp. Windchill Dew Point Humidity Wind Precip. Elev Updated Type